Time;durP1;ratioP1;P1;durP2;ratioP2;P2;SDS_P1;SDS_P2;PMS_P1;PMS_P2;Temp;Humidity;BMP_temperature;BMP_pressure;BME280_temperature;BME280_humidity;BME280_pressure;Samples;Min_cycle;Max_cycle;Signal;HPM_P1;HPM_P2
2021/10/24 00:01:50;;;;;;;;;;;19.90;99.90;;;;;;5093880;28;19919;-73
2021/10/24 00:04:17;;;;;;;;;;;19.90;99.90;;;;;;5093404;28;19915;-74
2021/10/24 00:06:43;;;;;;;;;;;19.80;99.90;;;;;;5094471;28;19916;-74
2021/10/24 00:09:10;;;;;;;;;;;19.80;99.90;;;;;;5094043;28;19908;-72
2021/10/24 00:11:37;;;;;;;;;;;19.70;99.90;;;;;;5092213;28;19991;-75
2021/10/24 00:14:06;;;;;;;;;;;19.50;99.90;;;;;;5094383;28;20344;-75
2021/10/24 00:16:33;;;;;;;;;;;19.40;99.90;;;;;;5093101;28;19908;-75
2021/10/24 00:19:00;;;;;;;;;;;19.40;99.90;;;;;;5093366;28;19934;-74
2021/10/24 00:21:26;;;;;;;;;;;19.40;99.90;;;;;;5092924;28;19988;-73
2021/10/24 00:23:53;;;;;;;;;;;19.40;99.90;;;;;;5092375;28;19908;-75
2021/10/24 00:26:20;;;;;;;;;;;19.60;99.90;;;;;;5092500;28;20010;-72
2021/10/24 00:28:46;;;;;;;;;;;19.90;99.90;;;;;;5093033;28;19912;-73
2021/10/24 00:31:13;;;;;;;;;;;20.10;99.90;;;;;;5092796;28;19908;-72
2021/10/24 00:33:39;;;;;;;;;;;20.60;99.90;;;;;;5091421;28;19908;-74
2021/10/24 00:36:06;;;;;;;;;;;20.80;99.90;;;;;;5093159;28;19908;-73
2021/10/24 00:38:33;;;;;;;;;;;20.50;99.90;;;;;;5092902;28;19961;-74
2021/10/24 00:40:59;;;;;;;;;;;20.30;99.90;;;;;;5092053;28;20010;-73
2021/10/24 00:43:26;;;;;;;;;;;20.10;99.90;;;;;;5093131;28;19908;-73
2021/10/24 00:45:53;;;;;;;;;;;20.00;99.90;;;;;;5091759;28;19920;-72
2021/10/24 00:48:19;;;;;;;;;;;20.20;99.90;;;;;;5092632;28;19923;-74
2021/10/24 00:50:46;;;;;;;;;;;20.60;99.90;;;;;;5092883;28;20278;-72
2021/10/24 00:53:14;;;;;;;;;;;20.80;99.90;;;;;;5091676;28;19909;-73
2021/10/24 00:55:42;;;;;;;;;;;21.00;99.90;;;;;;5092325;28;20381;-72
2021/10/24 00:58:09;;;;;;;;;;;21.10;99.90;;;;;;5086903;28;19909;-73
2021/10/24 01:00:35;;;;;;;;;;;20.90;99.90;;;;;;5092549;28;20003;-72
2021/10/24 01:03:02;;;;;;;;;;;20.80;99.90;;;;;;5092181;28;20358;-71
2021/10/24 01:05:31;;;;;;;;;;;20.70;99.90;;;;;;5092594;28;19955;-72
2021/10/24 01:07:59;;;;;;;;;;;20.50;99.90;;;;;;5092149;28;19916;-72
2021/10/24 01:10:26;;;;;;;;;;;20.40;99.90;;;;;;5092287;28;19915;-73
2021/10/24 01:12:52;;;;;;;;;;;20.30;99.90;;;;;;5092354;28;20066;-72
2021/10/24 01:15:20;;;;;;;;;;;21.00;99.90;;;;;;5092219;28;19908;-73
2021/10/24 01:17:47;;;;;;;;;;;21.50;99.90;;;;;;5092162;28;20286;-73
2021/10/24 01:20:19;;;;;;;;;;;21.90;99.90;;;;;;5092582;28;19999;-73
2021/10/24 01:22:46;;;;;;;;;;;22.30;99.90;;;;;;5092506;28;19908;-74
2021/10/24 01:25:13;;;;;;;;;;;22.40;99.90;;;;;;5095975;28;19912;-73
2021/10/24 01:27:40;;;;;;;;;;;22.40;99.90;;;;;;5096045;28;20719;-73
2021/10/24 01:30:07;;;;;;;;;;;21.60;99.90;;;;;;5095114;28;19936;-73
2021/10/24 01:32:34;;;;;;;;;;;21.30;99.90;;;;;;5096841;28;20348;-72
2021/10/24 01:35:01;;;;;;;;;;;21.00;99.90;;;;;;5097220;28;19938;-73
2021/10/24 01:37:34;;;;;;;;;;;20.80;99.90;;;;;;5096168;28;19965;-72
2021/10/24 01:40:02;;;;;;;;;;;20.80;99.90;;;;;;5096083;28;20411;-73
2021/10/24 01:42:29;;;;;;;;;;;20.60;99.90;;;;;;5096133;28;19939;-71
2021/10/24 01:44:56;;;;;;;;;;;20.50;99.90;;;;;;5095856;28;19982;-72
2021/10/24 01:47:22;;;;;;;;;;;20.50;99.90;;;;;;5096187;28;20282;-72
2021/10/24 01:49:49;;;;;;;;;;;20.50;99.90;;;;;;5095907;28;19915;-73
2021/10/24 01:52:16;;;;;;;;;;;20.50;99.90;;;;;;5096073;28;19912;-73
2021/10/24 01:54:43;;;;;;;;;;;20.30;99.90;;;;;;5095557;28;19923;-73
2021/10/24 01:57:10;;;;;;;;;;;20.40;99.90;;;;;;5096998;28;19920;-76
2021/10/24 01:59:38;;;;;;;;;;;20.30;99.90;;;;;;5097120;28;19908;-74
2021/10/24 02:02:05;;;;;;;;;;;20.20;99.90;;;;;;5096639;28;19919;-75
2021/10/24 02:04:32;;;;;;;;;;;20.30;99.90;;;;;;5096993;28;19908;-73
2021/10/24 02:06:58;;;;;;;;;;;20.00;99.90;;;;;;5096990;28;20018;-74
2021/10/24 02:09:25;;;;;;;;;;;20.20;99.90;;;;;;5096783;28;20445;-73
2021/10/24 02:11:59;;;;;;;;;;;20.40;99.90;;;;;;5099216;28;20391;-75
2021/10/24 02:14:25;;;;;;;;;;;20.40;99.90;;;;;;5116694;28;19953;-74
2021/10/24 02:16:52;;;;;;;;;;;20.20;99.90;;;;;;5116910;28;20537;-74
2021/10/24 02:19:19;;;;;;;;;;;20.30;99.90;;;;;;5117676;28;19908;-73
2021/10/24 02:21:45;;;;;;;;;;;20.30;99.90;;;;;;5116458;28;20251;-73
2021/10/24 02:24:12;;;;;;;;;;;20.40;99.90;;;;;;5117166;28;19918;-75
2021/10/24 02:26:39;;;;;;;;;;;20.50;99.90;;;;;;5116368;27;19956;-74
2021/10/24 02:29:05;;;;;;;;;;;20.70;99.90;;;;;;5116044;28;19951;-73
2021/10/24 02:31:32;;;;;;;;;;;20.70;99.90;;;;;;5116246;27;19907;-73
2021/10/24 02:33:59;;;;;;;;;;;20.50;99.90;;;;;;5114862;28;19908;-73
2021/10/24 02:36:25;;;;;;;;;;;20.50;99.90;;;;;;5116504;28;19961;-73
2021/10/24 02:38:52;;;;;;;;;;;20.50;99.90;;;;;;5116807;28;19930;-74
2021/10/24 02:41:19;;;;;;;;;;;20.30;99.90;;;;;;5116565;28;19994;-73
2021/10/24 02:43:45;;;;;;;;;;;20.20;99.90;;;;;;5116991;28;19908;-72
2021/10/24 02:46:12;;;;;;;;;;;20.30;99.90;;;;;;5116504;28;19920;-73
2021/10/24 02:48:39;;;;;;;;;;;20.30;99.90;;;;;;5117231;28;19919;-73
2021/10/24 02:51:05;;;;;;;;;;;20.20;99.90;;;;;;5116363;28;19911;-73
2021/10/24 02:53:33;;;;;;;;;;;20.30;99.90;;;;;;5117220;28;19998;-73
2021/10/24 02:56:00;;;;;;;;;;;20.20;99.90;;;;;;5116399;28;20089;-74
2021/10/24 02:58:26;;;;;;;;;;;20.20;99.90;;;;;;5115972;28;19973;-73
2021/10/24 03:00:53;;;;;;;;;;;20.10;99.90;;;;;;5117585;28;19977;-75
2021/10/24 03:03:20;;;;;;;;;;;20.30;99.90;;;;;;5115571;28;19919;-75
2021/10/24 03:05:48;;;;;;;;;;;20.40;99.90;;;;;;5115470;28;20274;-76
2021/10/24 03:08:15;;;;;;;;;;;20.30;99.90;;;;;;5116707;28;19908;-74
2021/10/24 03:10:42;;;;;;;;;;;20.50;99.90;;;;;;5116531;28;19908;-75
2021/10/24 03:13:08;;;;;;;;;;;20.40;99.90;;;;;;5116099;28;19912;-73
2021/10/24 03:15:35;;;;;;;;;;;20.30;99.90;;;;;;5114513;28;19960;-73
2021/10/24 03:18:02;;;;;;;;;;;20.30;99.90;;;;;;5115922;28;19914;-74
2021/10/24 03:20:29;;;;;;;;;;;20.40;99.90;;;;;;5115514;28;19922;-73
2021/10/24 03:22:55;;;;;;;;;;;20.40;99.90;;;;;;5115768;28;19912;-74
2021/10/24 03:25:22;;;;;;;;;;;20.20;99.90;;;;;;5115169;28;19916;-74
2021/10/24 03:27:49;;;;;;;;;;;20.00;99.90;;;;;;5113131;28;19908;-73
2021/10/24 03:30:16;;;;;;;;;;;19.80;99.90;;;;;;5114522;28;20017;-73
2021/10/24 03:32:42;;;;;;;;;;;19.70;99.90;;;;;;5114267;28;19957;-72
2021/10/24 03:35:09;;;;;;;;;;;19.60;99.90;;;;;;5114324;28;19908;-73
2021/10/24 03:37:36;;;;;;;;;;;19.70;99.90;;;;;;5113951;28;19908;-74
2021/10/24 03:40:03;;;;;;;;;;;19.90;99.90;;;;;;5114064;28;20020;-73
2021/10/24 03:42:29;;;;;;;;;;;19.90;99.90;;;;;;5113989;28;19935;-74
2021/10/24 03:44:56;;;;;;;;;;;20.00;99.90;;;;;;5113998;28;20339;-73
2021/10/24 03:47:23;;;;;;;;;;;20.00;99.90;;;;;;5113357;28;20370;-74
2021/10/24 03:49:49;;;;;;;;;;;19.90;99.90;;;;;;5114137;28;19918;-74
2021/10/24 03:52:16;;;;;;;;;;;20.00;99.90;;;;;;5115488;28;19914;-72
2021/10/24 03:54:43;;;;;;;;;;;20.00;99.90;;;;;;5114387;28;19907;-73
2021/10/24 03:57:09;;;;;;;;;;;20.00;99.90;;;;;;5113585;28;19924;-74
2021/10/24 03:59:36;;;;;;;;;;;20.00;99.90;;;;;;5114443;28;20114;-73
2021/10/24 04:02:03;;;;;;;;;;;20.00;99.90;;;;;;5114423;28;19907;-73
2021/10/24 04:04:30;;;;;;;;;;;20.10;99.90;;;;;;5113946;28;20010;-74
2021/10/24 04:06:57;;;;;;;;;;;20.00;99.90;;;;;;5114247;28;19915;-73
2021/10/24 04:09:23;;;;;;;;;;;20.00;99.90;;;;;;5113859;28;19960;-72
2021/10/24 04:11:50;;;;;;;;;;;19.90;99.90;;;;;;5113443;28;19973;-73
2021/10/24 04:14:17;;;;;;;;;;;19.90;99.90;;;;;;5114178;28;19915;-72
2021/10/24 04:16:44;;;;;;;;;;;19.90;99.90;;;;;;5113477;28;19908;-73
2021/10/24 04:19:11;;;;;;;;;;;19.90;99.90;;;;;;5113672;28;19995;-73
2021/10/24 04:21:37;;;;;;;;;;;19.90;99.90;;;;;;5113580;28;19907;-73
2021/10/24 04:24:04;;;;;;;;;;;20.00;99.90;;;;;;5112117;28;19998;-74
2021/10/24 04:26:31;;;;;;;;;;;19.90;99.90;;;;;;5112557;28;19916;-71
2021/10/24 04:28:58;;;;;;;;;;;19.90;99.90;;;;;;5113207;28;19995;-75
2021/10/24 04:31:29;;;;;;;;;;;19.80;99.90;;;;;;5113821;28;19930;-74
2021/10/24 04:33:56;;;;;;;;;;;19.80;99.90;;;;;;5115357;28;19908;-73
2021/10/24 04:36:23;;;;;;;;;;;19.80;99.90;;;;;;5115621;28;19944;-74
2021/10/24 04:38:50;;;;;;;;;;;19.90;99.90;;;;;;5113270;28;19947;-72
2021/10/24 04:41:16;;;;;;;;;;;19.90;99.90;;;;;;5113241;28;19956;-74
2021/10/24 04:43:43;;;;;;;;;;;20.00;99.90;;;;;;5113069;28;19943;-74
2021/10/24 04:46:09;;;;;;;;;;;20.00;99.90;;;;;;5112933;28;19916;-74
2021/10/24 04:48:36;;;;;;;;;;;20.10;99.90;;;;;;5112862;28;19908;-73
2021/10/24 04:51:03;;;;;;;;;;;20.00;99.90;;;;;;5113236;28;19939;-75
2021/10/24 04:53:30;;;;;;;;;;;19.90;99.90;;;;;;5112687;28;20006;-73
2021/10/24 04:55:56;;;;;;;;;;;19.90;99.90;;;;;;5113225;28;20298;-73
2021/10/24 04:58:23;;;;;;;;;;;20.00;99.90;;;;;;5116133;28;19998;-75
2021/10/24 05:00:50;;;;;;;;;;;20.00;99.90;;;;;;5117797;28;20281;-73
2021/10/24 05:03:17;;;;;;;;;;;19.80;99.90;;;;;;5117865;28;19930;-74
2021/10/24 05:05:47;;;;;;;;;;;19.70;99.90;;;;;;5117578;28;20332;-74
2021/10/24 05:08:13;;;;;;;;;;;19.70;99.90;;;;;;5117530;28;20282;-73
2021/10/24 05:10:41;;;;;;;;;;;19.70;99.90;;;;;;5117355;28;19966;-73
2021/10/24 05:13:08;;;;;;;;;;;19.80;99.90;;;;;;5117471;28;20389;-74
2021/10/24 05:15:35;;;;;;;;;;;19.80;99.90;;;;;;5117506;28;20318;-74
2021/10/24 05:18:01;;;;;;;;;;;19.80;99.90;;;;;;5117718;28;20432;-73
2021/10/24 05:20:28;;;;;;;;;;;19.70;99.90;;;;;;5117368;28;19916;-74
2021/10/24 05:22:55;;;;;;;;;;;19.70;99.90;;;;;;5117309;28;19908;-73
2021/10/24 05:25:21;;;;;;;;;;;19.60;99.90;;;;;;5117041;28;19919;-74
2021/10/24 05:27:53;;;;;;;;;;;19.50;99.90;;;;;;5116914;28;19912;-75
2021/10/24 05:30:19;;;;;;;;;;;19.60;99.90;;;;;;5116854;28;20419;-74
2021/10/24 05:32:46;;;;;;;;;;;19.60;99.90;;;;;;5116675;28;19914;-74
2021/10/24 05:35:13;;;;;;;;;;;19.60;99.90;;;;;;5116819;28;19954;-73
2021/10/24 05:37:39;;;;;;;;;;;19.70;99.90;;;;;;5116655;28;19908;-73
2021/10/24 05:40:06;;;;;;;;;;;19.60;99.90;;;;;;5116654;28;20377;-74
2021/10/24 05:42:33;;;;;;;;;;;19.50;99.90;;;;;;5116795;28;20369;-75
2021/10/24 05:45:00;;;;;;;;;;;19.60;99.90;;;;;;5116552;28;19916;-74
2021/10/24 05:47:28;;;;;;;;;;;19.70;99.90;;;;;;5115021;28;19911;-73
2021/10/24 05:49:55;;;;;;;;;;;19.70;99.90;;;;;;5115743;28;20281;-73
2021/10/24 05:52:22;;;;;;;;;;;19.60;99.90;;;;;;5114970;28;19915;-72
2021/10/24 05:54:49;;;;;;;;;;;19.50;99.90;;;;;;5116117;28;19915;-71
2021/10/24 05:57:16;;;;;;;;;;;19.40;99.90;;;;;;5116169;28;19927;-71
2021/10/24 05:59:42;;;;;;;;;;;19.30;99.90;;;;;;5116216;27;20273;-70
2021/10/24 06:02:15;;;;;;;;;;;19.10;99.90;;;;;;5117736;28;19908;-71
2021/10/24 06:04:41;;;;;;;;;;;19.10;99.90;;;;;;5116699;28;19908;-71
2021/10/24 06:07:09;;;;;;;;;;;19.10;99.90;;;;;;5118497;28;19961;-73
2021/10/24 06:12:40;;;;;;;;;;;19.40;99.90;;;;;;5115428;28;19918;-73
2021/10/24 06:14:55;;;;;;;;;;;19.30;99.90;;;;;;5115347;28;19916;-73
2021/10/24 06:17:21;;;;;;;;;;;19.30;99.90;;;;;;5115558;28;19908;-70
2021/10/24 06:19:48;;;;;;;;;;;19.20;99.90;;;;;;5115656;28;19958;-74
2021/10/24 06:22:15;;;;;;;;;;;19.10;99.90;;;;;;5115564;28;19908;-73
2021/10/24 06:24:41;;;;;;;;;;;19.10;99.90;;;;;;5114152;28;19974;-74
2021/10/24 06:27:08;;;;;;;;;;;19.20;99.90;;;;;;5113747;28;19926;-72
2021/10/24 06:29:35;;;;;;;;;;;19.30;99.90;;;;;;5113390;28;19908;-73
2021/10/24 06:32:01;;;;;;;;;;;19.30;99.90;;;;;;5114130;28;19933;-71
2021/10/24 06:34:28;;;;;;;;;;;19.20;99.90;;;;;;5112606;28;19911;-71
2021/10/24 06:36:55;;;;;;;;;;;19.20;99.90;;;;;;5114547;28;20369;-72
2021/10/24 06:39:22;;;;;;;;;;;19.10;99.90;;;;;;5115432;28;19908;-72
2021/10/24 06:41:49;;;;;;;;;;;18.90;99.90;;;;;;5115231;28;19911;-74
2021/10/24 06:44:15;;;;;;;;;;;18.90;99.90;;;;;;5114877;28;19989;-72
2021/10/24 06:46:42;;;;;;;;;;;18.90;99.90;;;;;;5115631;28;19974;-73
2021/10/24 06:49:09;;;;;;;;;;;18.80;99.90;;;;;;5110881;28;20278;-74
2021/10/24 06:51:35;;;;;;;;;;;18.80;99.90;;;;;;5094669;28;19909;-74
2021/10/24 06:54:02;;;;;;;;;;;18.70;99.90;;;;;;5095135;28;19912;-74
2021/10/24 06:56:29;;;;;;;;;;;18.60;99.90;;;;;;5094855;28;19927;-71
2021/10/24 06:58:56;;;;;;;;;;;18.70;99.90;;;;;;5094767;28;19934;-73
2021/10/24 07:01:22;;;;;;;;;;;18.50;99.90;;;;;;5095193;28;19908;-74
2021/10/24 07:03:49;;;;;;;;;;;18.50;99.90;;;;;;5094281;28;20447;-74
2021/10/24 07:06:16;;;;;;;;;;;18.40;99.90;;;;;;5093332;28;20057;-73
2021/10/24 07:08:44;;;;;;;;;;;18.20;99.90;;;;;;5094365;28;19909;-74
2021/10/24 07:11:11;;;;;;;;;;;18.30;99.90;;;;;;5094282;28;19908;-73
2021/10/24 07:13:37;;;;;;;;;;;18.30;99.90;;;;;;5094244;28;20603;-74
2021/10/24 07:16:04;;;;;;;;;;;18.40;99.90;;;;;;5094561;28;19908;-73
2021/10/24 07:18:31;;;;;;;;;;;18.30;99.90;;;;;;5094957;28;19908;-73
2021/10/24 07:20:57;;;;;;;;;;;18.30;99.90;;;;;;5093434;28;20326;-73
2021/10/24 07:23:27;;;;;;;;;;;18.40;99.90;;;;;;5094189;28;19908;-74
2021/10/24 07:25:54;;;;;;;;;;;18.20;99.90;;;;;;5094390;28;19977;-74
2021/10/24 07:28:22;;;;;;;;;;;18.20;99.90;;;;;;5094729;28;19938;-74
2021/10/24 07:30:53;;;;;;;;;;;18.10;99.90;;;;;;5094858;28;19919;-72
2021/10/24 07:33:19;;;;;;;;;;;18.10;99.90;;;;;;5094717;28;20251;-71
2021/10/24 07:35:46;;;;;;;;;;;18.10;99.90;;;;;;5094830;28;19919;-73
2021/10/24 07:38:14;;;;;;;;;;;18.20;99.90;;;;;;5096222;28;19908;-72
2021/10/24 07:40:50;;;;;;;;;;;18.20;99.90;;;;;;5109518;28;19908;-72
2021/10/24 07:43:20;;;;;;;;;;;18.20;99.90;;;;;;5095249;28;19966;-73
2021/10/24 07:45:47;;;;;;;;;;;18.20;99.90;;;;;;5093557;28;19916;-71
2021/10/24 07:48:14;;;;;;;;;;;18.30;99.90;;;;;;5093840;28;19912;-71
2021/10/24 07:50:41;;;;;;;;;;;18.20;99.90;;;;;;5094065;28;20002;-74
2021/10/24 07:53:08;;;;;;;;;;;18.20;99.90;;;;;;5092659;28;19912;-71
2021/10/24 07:55:35;;;;;;;;;;;18.30;99.90;;;;;;5085778;28;19921;-72
2021/10/24 07:58:02;;;;;;;;;;;18.20;99.90;;;;;;5092511;28;19917;-72
2021/10/24 08:00:29;;;;;;;;;;;18.10;99.90;;;;;;5093393;28;19958;-72
2021/10/24 08:02:55;;;;;;;;;;;18.00;99.90;;;;;;5093467;28;19908;-74
2021/10/24 08:05:22;;;;;;;;;;;18.00;99.90;;;;;;5093013;28;19916;-74
2021/10/24 08:07:49;;;;;;;;;;;18.00;99.90;;;;;;5092954;28;19965;-71
2021/10/24 08:10:16;;;;;;;;;;;18.00;99.90;;;;;;5092902;28;19914;-71
2021/10/24 08:12:44;;;;;;;;;;;17.90;99.90;;;;;;5074882;28;19908;-71
2021/10/24 08:15:11;;;;;;;;;;;17.80;99.90;;;;;;5092825;28;20363;-72
2021/10/24 08:17:39;;;;;;;;;;;17.80;99.90;;;;;;5092892;28;19998;-73
2021/10/24 08:20:06;;;;;;;;;;;17.80;99.90;;;;;;5092995;28;19908;-73
2021/10/24 08:22:33;;;;;;;;;;;17.80;99.90;;;;;;5092786;28;19955;-72
2021/10/24 08:25:00;;;;;;;;;;;17.80;99.90;;;;;;5093075;28;19912;-73
2021/10/24 08:27:30;;;;;;;;;;;17.70;99.90;;;;;;5092843;28;20302;-72
2021/10/24 08:29:58;;;;;;;;;;;17.70;99.90;;;;;;5078989;28;19975;-72
2021/10/24 08:32:25;;;;;;;;;;;17.70;99.90;;;;;;5052887;28;19909;-72
2021/10/24 08:34:53;;;;;;;;;;;17.80;99.90;;;;;;5052522;28;20241;-72
2021/10/24 08:37:21;;;;;;;;;;;17.70;99.90;;;;;;5052560;28;20313;-74
2021/10/24 08:39:52;;;;;;;;;;;17.80;99.90;;;;;;5052163;28;19920;-73
2021/10/24 08:42:26;;;;;;;;;;;17.80;99.90;;;;;;5067366;28;20291;-74
2021/10/24 08:44:56;;;;;;;;;;;17.70;99.90;;;;;;5052214;28;20263;-73
2021/10/24 08:47:24;;;;;;;;;;;17.70;99.90;;;;;;5051952;28;20404;-75
2021/10/24 08:49:52;;;;;;;;;;;17.70;99.90;;;;;;5052063;28;19917;-74
2021/10/24 08:52:20;;;;;;;;;;;17.80;99.90;;;;;;5052135;28;20352;-74
2021/10/24 08:54:50;;;;;;;;;;;17.90;99.90;;;;;;5078510;28;19908;-74
2021/10/24 08:57:29;;;;;;;;;;;17.90;99.90;;;;;;5090960;28;19935;-75
2021/10/24 08:59:57;;;;;;;;;;;17.90;99.90;;;;;;5092340;28;20371;-74
2021/10/24 09:02:24;;;;;;;;;;;17.70;99.90;;;;;;5092531;28;20367;-73
2021/10/24 09:04:51;;;;;;;;;;;17.70;99.90;;;;;;5092288;28;19962;-73
2021/10/24 09:07:18;;;;;;;;;;;17.70;99.90;;;;;;5091879;28;19912;-75
2021/10/24 09:09:45;;;;;;;;;;;17.70;99.90;;;;;;5092732;28;20008;-73
2021/10/24 09:12:13;;;;;;;;;;;17.80;99.90;;;;;;5096302;28;19912;-73
2021/10/24 09:14:50;;;;;;;;;;;17.80;99.90;;;;;;5100001;28;19908;-73
2021/10/24 09:17:28;;;;;;;;;;;17.70;99.90;;;;;;5093499;28;20282;-72
2021/10/24 09:19:56;;;;;;;;;;;17.70;99.90;;;;;;5092763;28;19916;-74
2021/10/24 09:22:26;;;;;;;;;;;17.70;99.90;;;;;;5092623;28;19908;-74
2021/10/24 09:25:11;;;;;;;;;;;17.80;99.90;;;;;;5093310;28;19912;-74
2021/10/24 09:27:43;;;;;;;;;;;17.80;99.90;;;;;;5091815;28;20335;-75
2021/10/24 09:30:10;;;;;;;;;;;17.80;99.90;;;;;;5074616;28;19993;-73
2021/10/24 09:32:47;;;;;;;;;;;17.90;99.90;;;;;;5074544;28;19908;-73
2021/10/24 09:35:14;;;;;;;;;;;18.00;99.90;;;;;;5092180;28;19931;-72
2021/10/24 09:37:45;;;;;;;;;;;17.90;99.90;;;;;;5092260;28;19912;-75
2021/10/24 09:40:11;;;;;;;;;;;17.30;99.90;;;;;;5092337;28;19916;-75
2021/10/24 09:42:39;;;;;;;;;;;16.90;99.90;;;;;;5092692;28;19912;-74
2021/10/24 09:45:12;;;;;;;;;;;16.60;99.90;;;;;;5076194;28;19922;-75
2021/10/24 09:48:04;;;;;;;;;;;16.40;99.90;;;;;;5095780;28;19916;-73
2021/10/24 09:50:33;;;;;;;;;;;16.20;99.90;;;;;;5095867;28;19915;-74
2021/10/24 09:53:18;;;;;;;;;;;16.00;99.90;;;;;;5095635;28;20324;-74
2021/10/24 09:55:48;;;;;;;;;;;15.80;99.90;;;;;;5094488;28;19947;-74
2021/10/24 09:58:15;;;;;;;;;;;15.50;99.90;;;;;;5095368;28;19912;-74
2021/10/24 10:00:43;;;;;;;;;;;15.40;99.90;;;;;;5095602;28;19930;-74
2021/10/24 10:03:10;;;;;;;;;;;15.20;99.90;;;;;;5095649;28;19908;-72
2021/10/24 10:05:37;;;;;;;;;;;15.10;99.90;;;;;;5095069;28;19916;-73
2021/10/24 10:08:05;;;;;;;;;;;15.20;99.90;;;;;;5095539;28;19987;-73
2021/10/24 10:10:33;;;;;;;;;;;15.30;99.90;;;;;;5094743;28;20278;-75
2021/10/24 10:13:01;;;;;;;;;;;15.40;99.90;;;;;;5095211;28;19912;-74
2021/10/24 10:15:33;;;;;;;;;;;15.50;99.90;;;;;;5094897;28;20321;-72
2021/10/24 10:18:02;;;;;;;;;;;15.50;99.90;;;;;;5095370;28;19909;-72
2021/10/24 10:20:29;;;;;;;;;;;15.60;99.90;;;;;;5095092;28;20006;-75
2021/10/24 10:23:09;;;;;;;;;;;15.60;99.90;;;;;;5094855;28;19916;-75
2021/10/24 10:25:36;;;;;;;;;;;15.70;99.90;;;;;;5093864;28;19926;-75
2021/10/24 10:28:04;;;;;;;;;;;15.60;99.90;;;;;;5094990;28;19930;-72
2021/10/24 10:30:35;;;;;;;;;;;15.60;99.90;;;;;;5094685;28;19908;-73
2021/10/24 10:33:04;;;;;;;;;;;15.70;99.90;;;;;;5094938;28;19981;-74
2021/10/24 10:35:32;;;;;;;;;;;15.60;99.90;;;;;;5094387;28;19958;-73
2021/10/24 10:38:01;;;;;;;;;;;15.50;99.90;;;;;;5076468;28;20024;-73
2021/10/24 10:40:30;;;;;;;;;;;15.50;99.90;;;;;;5094069;28;19931;-74
2021/10/24 10:42:57;;;;;;;;;;;15.40;99.90;;;;;;5076912;28;19947;-71
2021/10/24 10:45:36;;;;;;;;;;;15.30;99.90;;;;;;5094210;28;19912;-72
2021/10/24 10:48:07;;;;;;;;;;;15.30;99.90;;;;;;5105580;28;19912;-70
2021/10/24 10:50:39;;;;;;;;;;;15.20;99.90;;;;;;5096519;28;19998;-71
2021/10/24 10:53:07;;;;;;;;;;;15.20;99.90;;;;;;5095322;28;19931;-74
2021/10/24 10:55:54;;;;;;;;;;;15.30;99.90;;;;;;5093861;28;20318;-71
2021/10/24 10:58:33;;;;;;;;;;;15.30;99.90;;;;;;5083468;28;19920;-72
2021/10/24 11:01:02;;;;;;;;;;;15.20;99.90;;;;;;5094103;28;19951;-74
2021/10/24 11:03:58;;;;;;;;;;;15.20;99.90;;;;;;5094623;28;19914;-74
2021/10/24 11:06:25;;;;;;;;;;;15.20;99.90;;;;;;5072277;28;19923;-72
2021/10/24 11:08:53;;;;;;;;;;;15.20;99.90;;;;;;5094095;28;20002;-72
2021/10/24 11:14:11;;;;;;;;;;;15.30;99.90;;;;;;5094251;28;19943;-73
2021/10/24 11:16:48;;;;;;;;;;;15.30;99.90;;;;;;5094523;28;19949;-72
2021/10/24 11:19:32;;;;;;;;;;;15.30;99.90;;;;;;5094259;28;19960;-72
2021/10/24 11:22:04;;;;;;;;;;;15.30;99.90;;;;;;5093925;28;19908;-72
2021/10/24 11:24:33;;;;;;;;;;;15.30;99.90;;;;;;5093935;28;19909;-72
2021/10/24 11:27:01;;;;;;;;;;;15.50;99.90;;;;;;5093613;28;19916;-71
2021/10/24 11:29:28;;;;;;;;;;;15.60;99.90;;;;;;5096419;28;20358;-71
2021/10/24 11:32:13;;;;;;;;;;;15.60;99.90;;;;;;5093170;28;19908;-74
2021/10/24 11:34:48;;;;;;;;;;;15.70;99.90;;;;;;5094206;28;19931;-74
2021/10/24 11:37:14;;;;;;;;;;;15.90;99.90;;;;;;5093836;28;19939;-74
2021/10/24 11:39:41;;;;;;;;;;;15.90;99.90;;;;;;5093596;28;19912;-74
2021/10/24 11:42:09;;;;;;;;;;;16.00;99.90;;;;;;5093921;28;19912;-74
2021/10/24 11:44:35;;;;;;;;;;;16.00;99.90;;;;;;5093668;28;19999;-73
2021/10/24 11:47:20;;;;;;;;;;;16.10;99.90;;;;;;5087855;28;19919;-75
2021/10/24 11:49:51;;;;;;;;;;;16.10;99.90;;;;;;5052937;28;19916;-75
2021/10/24 11:52:22;;;;;;;;;;;16.20;99.90;;;;;;5052939;28;19920;-75
2021/10/24 11:55:03;;;;;;;;;;;16.10;99.90;;;;;;5053251;28;20011;-74
2021/10/24 11:57:57;;;;;;;;;;;16.10;99.90;;;;;;5070257;28;19927;-73
2021/10/24 12:00:38;;;;;;;;;;;16.10;99.90;;;;;;5073460;28;20213;-75
2021/10/24 12:03:05;;;;;;;;;;;16.00;99.90;;;;;;5073020;28;20042;-72
2021/10/24 12:05:33;;;;;;;;;;;16.00;99.90;;;;;;5072707;28;19921;-72
2021/10/24 12:08:00;;;;;;;;;;;16.10;99.90;;;;;;5071893;28;19909;-73
2021/10/24 12:10:39;;;;;;;;;;;16.20;99.90;;;;;;5071935;28;19966;-73
2021/10/24 12:13:26;;;;;;;;;;;16.20;99.90;;;;;;5072996;28;20331;-73
2021/10/24 12:15:52;;;;;;;;;;;16.10;99.90;;;;;;5072510;28;19999;-74
2021/10/24 12:18:19;;;;;;;;;;;16.10;99.90;;;;;;5073509;28;19909;-74
2021/10/24 12:20:56;;;;;;;;;;;16.10;99.90;;;;;;5075417;28;19916;-72
2021/10/24 12:23:27;;;;;;;;;;;16.10;99.90;;;;;;5082763;28;19999;-74
2021/10/24 12:25:57;;;;;;;;;;;16.00;99.90;;;;;;5073331;28;19938;-74
2021/10/24 12:28:31;;;;;;;;;;;16.00;99.90;;;;;;5073032;28;19908;-75
2021/10/24 12:31:01;;;;;;;;;;;16.00;99.90;;;;;;5072876;28;19908;-76
2021/10/24 12:33:34;;;;;;;;;;;16.10;99.90;;;;;;5072906;28;19942;-76
2021/10/24 12:36:03;;;;;;;;;;;16.00;99.90;;;;;;5072778;28;19912;-74
2021/10/24 12:38:42;;;;;;;;;;;16.00;99.90;;;;;;5072890;28;19912;-75
2021/10/24 12:41:09;;;;;;;;;;;16.10;99.90;;;;;;5072653;28;19991;-75
2021/10/24 12:43:46;;;;;;;;;;;16.10;99.90;;;;;;5071659;28;20328;-74
2021/10/24 12:46:12;;;;;;;;;;;16.10;99.90;;;;;;5071254;28;20275;-73
2021/10/24 12:48:39;;;;;;;;;;;16.20;99.90;;;;;;5072776;28;19909;-75
2021/10/24 12:51:19;;;;;;;;;;;16.20;99.90;;;;;;5072339;28;20374;-76
2021/10/24 12:53:46;;;;;;;;;;;16.20;99.90;;;;;;5072258;28;19954;-74
2021/10/24 12:56:13;;;;;;;;;;;16.20;99.90;;;;;;5072533;28;20003;-74
2021/10/24 12:58:39;;;;;;;;;;;16.20;99.90;;;;;;5072537;28;20259;-73
2021/10/24 13:01:06;;;;;;;;;;;16.30;99.90;;;;;;5072650;28;20287;-73
2021/10/24 13:03:33;;;;;;;;;;;16.30;99.90;;;;;;5072345;28;19948;-74
2021/10/24 13:05:59;;;;;;;;;;;16.30;99.90;;;;;;5072242;28;19916;-74
2021/10/24 13:08:26;;;;;;;;;;;16.30;99.90;;;;;;5072539;28;19915;-75
2021/10/24 13:10:53;;;;;;;;;;;16.30;99.90;;;;;;5072203;28;19923;-76
2021/10/24 13:13:19;;;;;;;;;;;16.30;99.90;;;;;;5072343;28;19909;-74
2021/10/24 13:15:46;;;;;;;;;;;16.30;99.90;;;;;;5072200;28;20307;-76
2021/10/24 13:18:14;;;;;;;;;;;16.40;99.90;;;;;;5072482;28;19943;-75
2021/10/24 13:20:43;;;;;;;;;;;16.50;99.90;;;;;;5075480;28;19909;-75
2021/10/24 13:23:09;;;;;;;;;;;16.50;99.90;;;;;;5076135;28;19931;-75
2021/10/24 13:25:36;;;;;;;;;;;16.50;99.90;;;;;;5075998;28;19967;-73
2021/10/24 13:28:03;;;;;;;;;;;16.50;99.90;;;;;;5076099;28;20334;-74
2021/10/24 13:30:33;;;;;;;;;;;16.60;99.90;;;;;;5076098;28;19909;-75
2021/10/24 13:32:59;;;;;;;;;;;16.60;99.90;;;;;;5107975;28;19916;-73
2021/10/24 13:35:26;;;;;;;;;;;16.60;99.90;;;;;;5076136;28;19954;-76
2021/10/24 13:37:53;;;;;;;;;;;16.60;99.90;;;;;;5075701;28;19944;-73
2021/10/24 13:40:20;;;;;;;;;;;16.60;99.90;;;;;;5076112;28;20351;-74
2021/10/24 13:42:46;;;;;;;;;;;16.50;99.90;;;;;;5108632;28;20334;-75
2021/10/24 13:45:17;;;;;;;;;;;16.50;99.90;;;;;;5075890;28;20520;-74
2021/10/24 13:47:44;;;;;;;;;;;16.50;99.90;;;;;;5075685;28;20420;-75
2021/10/24 13:50:11;;;;;;;;;;;16.50;99.90;;;;;;5075879;28;19991;-75
2021/10/24 13:52:38;;;;;;;;;;;16.60;99.90;;;;;;5075799;28;19912;-75
2021/10/24 13:55:06;;;;;;;;;;;16.50;99.90;;;;;;5108427;28;19912;-73
2021/10/24 13:57:33;;;;;;;;;;;16.50;99.90;;;;;;5077666;28;19967;-74
2021/10/24 13:59:59;;;;;;;;;;;16.50;99.90;;;;;;5076835;28;19944;-74
2021/10/24 14:02:28;;;;;;;;;;;16.50;99.90;;;;;;5075676;28;20267;-74
2021/10/24 14:04:56;;;;;;;;;;;16.50;99.90;;;;;;5074575;28;19998;-73
2021/10/24 14:07:24;;;;;;;;;;;16.50;99.90;;;;;;5075489;28;19920;-73
2021/10/24 14:09:51;;;;;;;;;;;16.50;99.90;;;;;;5074965;28;19931;-73
2021/10/24 14:12:18;;;;;;;;;;;16.50;99.90;;;;;;5075181;28;19909;-74
2021/10/24 14:14:45;;;;;;;;;;;16.60;99.90;;;;;;5075307;28;19952;-73
2021/10/24 14:17:11;;;;;;;;;;;16.60;99.90;;;;;;5075198;28;20001;-75
2021/10/24 14:19:38;;;;;;;;;;;16.60;99.90;;;;;;5073701;28;19916;-74
2021/10/24 14:22:05;;;;;;;;;;;16.60;99.90;;;;;;5075069;28;19916;-75
2021/10/24 14:24:31;;;;;;;;;;;16.40;99.90;;;;;;5075384;28;19915;-74
2021/10/24 14:26:58;;;;;;;;;;;16.30;99.90;;;;;;5075141;28;19966;-76
2021/10/24 14:29:26;;;;;;;;;;;16.20;99.90;;;;;;5074959;28;19912;-75